createdAt,value
2019-03-21T00:01:32.351Z,71.40
2019-03-21T00:04:13.997Z,71.40
2019-03-21T00:06:44.961Z,71.50
2019-03-21T00:09:17.612Z,71.60
2019-03-21T00:12:16.132Z,71.50
2019-03-21T00:14:56.755Z,71.20
2019-03-21T00:17:31.011Z,71.40
2019-03-21T00:20:01.925Z,71.20
2019-03-21T00:22:34.165Z,71.40
2019-03-21T00:25:05.678Z,71.50
2019-03-21T00:27:36.530Z,71.40
2019-03-21T00:30:11.800Z,71.80
2019-03-21T00:32:42.769Z,71.70
2019-03-21T00:35:13.668Z,71.70
2019-03-21T00:37:44.491Z,71.50
2019-03-21T00:40:18.093Z,71.70
2019-03-21T00:42:49.071Z,71.70
2019-03-21T00:45:19.928Z,71.60
2019-03-21T00:47:50.705Z,71.60
2019-03-21T00:50:22.992Z,71.50
2019-03-21T00:52:55.037Z,71.50
2019-03-21T00:55:26.408Z,71.50
2019-03-21T00:57:58.644Z,71.60
2019-03-21T01:00:32.498Z,71.80
2019-03-21T01:03:03.821Z,71.90
2019-03-21T01:05:34.768Z,71.70
2019-03-21T01:08:05.680Z,71.80
2019-03-21T01:10:36.711Z,71.90
2019-03-21T01:13:07.649Z,72.00
2019-03-21T01:15:38.573Z,72.20
2019-03-21T01:18:09.463Z,72.20
2019-03-21T01:20:40.324Z,72.30
2019-03-21T01:23:11.706Z,72.50
2019-03-21T01:25:46.161Z,72.70
2019-03-21T01:28:17.011Z,72.70
2019-03-21T01:30:47.864Z,72.80
2019-03-21T01:33:18.720Z,73.10
2019-03-21T01:35:49.573Z,73.30
2019-03-21T01:38:20.399Z,73.30
2019-03-21T01:40:51.696Z,73.00
2019-03-21T01:43:22.577Z,73.70
2019-03-21T01:45:53.396Z,74.00
2019-03-21T01:48:24.232Z,74.00
2019-03-21T01:50:55.031Z,74.30
2019-03-21T01:53:25.880Z,74.50
2019-03-21T01:55:56.756Z,74.60
2019-03-21T01:58:27.621Z,74.80
2019-03-21T02:00:58.472Z,74.90
2019-03-21T02:03:29.328Z,74.90
2019-03-21T02:06:00.200Z,74.90
2019-03-21T02:08:31.064Z,74.90
2019-03-21T02:11:02.064Z,74.90
2019-03-21T02:13:33.086Z,75.10
2019-03-21T02:16:03.997Z,75.20
2019-03-21T02:18:34.834Z,75.20
2019-03-21T02:21:05.849Z,75.40
2019-03-21T02:23:40.133Z,75.50
2019-03-21T02:26:11.756Z,75.50
2019-03-21T02:28:42.588Z,75.50
2019-03-21T02:31:13.932Z,75.80
2019-03-21T02:33:44.831Z,75.80
2019-03-21T02:36:15.705Z,75.90
2019-03-21T02:38:46.592Z,76.20
2019-03-21T02:41:17.482Z,76.60
2019-03-21T02:43:48.344Z,76.60
2019-03-21T02:46:19.254Z,76.60
2019-03-21T02:48:50.077Z,76.70
2019-03-21T02:51:20.951Z,76.80
2019-03-21T02:53:52.889Z,77.00
2019-03-21T02:56:23.854Z,77.00
2019-03-21T02:58:54.711Z,76.90
2019-03-21T03:01:25.604Z,77.00
2019-03-21T03:03:56.554Z,77.00
2019-03-21T03:06:27.412Z,77.50
2019-03-21T03:08:58.250Z,77.60
2019-03-21T03:11:29.050Z,77.80
2019-03-21T03:13:59.921Z,77.80
2019-03-21T03:16:30.891Z,78.00
2019-03-21T03:19:01.762Z,78.00
2019-03-21T03:21:32.695Z,78.10
2019-03-21T03:24:05.501Z,78.20
2019-03-21T03:26:36.389Z,78.20
2019-03-21T03:29:07.296Z,78.20
2019-03-21T03:31:38.164Z,78.30
2019-03-21T03:34:09.010Z,78.50
2019-03-21T03:36:39.832Z,78.60
2019-03-21T03:39:10.811Z,78.90
2019-03-21T03:41:41.686Z,79.20
2019-03-21T03:44:12.533Z,79.30
2019-03-21T03:46:43.391Z,79.60
2019-03-21T03:49:15.325Z,79.70
2019-03-21T03:51:46.225Z,79.80
2019-03-21T03:54:18.879Z,80.00
2019-03-21T03:56:49.741Z,80.30
2019-03-21T03:59:20.548Z,79.70
2019-03-21T04:01:51.522Z,80.50
2019-03-21T04:04:31.852Z,81.60
2019-03-21T04:07:02.819Z,80.70
2019-03-21T04:09:33.681Z,80.90
2019-03-21T04:12:05.734Z,81.30
2019-03-21T04:14:36.600Z,81.70
2019-03-21T04:17:07.479Z,81.90
2019-03-21T04:19:38.425Z,82.20
2019-03-21T04:22:10.256Z,82.90
2019-03-21T04:24:42.132Z,82.90
2019-03-21T04:27:13.758Z,83.10
2019-03-21T04:29:44.588Z,83.10
2019-03-21T04:32:15.461Z,83.60
2019-03-21T04:34:47.149Z,83.80
2019-03-21T04:37:19.205Z,84.00
2019-03-21T04:39:50.047Z,83.90
2019-03-21T04:42:20.914Z,84.20
2019-03-21T04:44:51.801Z,84.40
2019-03-21T04:47:22.678Z,84.50
2019-03-21T04:49:53.512Z,84.60
2019-03-21T04:52:24.378Z,84.80
2019-03-21T04:54:56.737Z,85.10
2019-03-21T04:57:27.608Z,85.30
2019-03-21T04:59:58.512Z,85.30
2019-03-21T05:02:29.340Z,85.40
2019-03-21T05:05:00.212Z,85.50
2019-03-21T05:07:32.139Z,85.60
2019-03-21T05:10:03.057Z,85.70
2019-03-21T05:12:33.892Z,85.70
2019-03-21T05:15:05.091Z,85.90
2019-03-21T05:17:35.894Z,85.90
2019-03-21T05:20:09.912Z,86.10
2019-03-21T05:22:40.856Z,86.20
2019-03-21T05:25:12.760Z,86.30
2019-03-21T05:27:44.498Z,86.20
2019-03-21T05:30:18.652Z,87.20
2019-03-21T05:32:49.500Z,86.30
2019-03-21T05:35:20.339Z,86.30
2019-03-21T05:37:51.156Z,86.30
2019-03-21T05:40:22.050Z,86.30
2019-03-21T05:43:00.602Z,86.60
2019-03-21T05:45:32.460Z,86.60
2019-03-21T05:48:03.302Z,86.80
2019-03-21T05:50:34.168Z,87.20
2019-03-21T05:53:05.065Z,87.20
2019-03-21T05:55:36.873Z,87.40
2019-03-21T05:58:07.636Z,87.70
2019-03-21T06:00:40.888Z,87.60
2019-03-21T06:03:15.228Z,87.70
2019-03-21T06:05:49.248Z,87.40
2019-03-21T06:08:23.560Z,87.40
2019-03-21T06:10:54.417Z,87.30
2019-03-21T06:13:25.301Z,87.30
2019-03-21T06:15:55.456Z,87.40
2019-03-21T06:19:14.660Z,87.50
2019-03-21T06:22:20.839Z,87.60
2019-03-21T06:25:22.489Z,87.70
2019-03-21T06:27:54.565Z,87.70
2019-03-21T06:30:25.433Z,87.80
2019-03-21T06:32:56.272Z,88.00
2019-03-21T06:35:27.159Z,88.00
2019-03-21T06:37:58.033Z,87.60
2019-03-21T06:40:28.880Z,87.60
2019-03-21T06:43:00.849Z,87.40
2019-03-21T06:45:31.774Z,87.50
2019-03-21T06:48:02.663Z,87.40
2019-03-21T06:50:33.556Z,87.40
2019-03-21T06:53:04.424Z,87.40
2019-03-21T06:55:35.292Z,87.10
2019-03-21T06:58:07.527Z,87.00
2019-03-21T07:00:41.519Z,86.90
2019-03-21T07:03:12.439Z,86.70
2019-03-21T07:05:43.222Z,86.50
2019-03-21T07:08:14.102Z,86.30
2019-03-21T07:10:44.972Z,86.10
2019-03-21T07:13:15.836Z,85.90
2019-03-21T07:15:46.728Z,85.70
2019-03-21T07:18:17.578Z,85.50
2019-03-21T07:20:48.446Z,85.30
2019-03-21T07:23:19.343Z,84.90
2019-03-21T07:25:50.313Z,84.60
2019-03-21T07:28:21.180Z,84.80
2019-03-21T07:30:52.090Z,84.70
2019-03-21T07:33:22.948Z,85.40
2019-03-21T07:35:53.817Z,85.60
2019-03-21T07:38:24.709Z,86.00
2019-03-21T07:40:55.575Z,86.30
2019-03-21T07:43:26.500Z,86.20
2019-03-21T07:45:57.361Z,86.00
2019-03-21T07:48:28.230Z,85.60
2019-03-21T07:50:59.089Z,85.40
2019-03-21T07:53:30.188Z,85.30
2019-03-21T07:56:01.085Z,85.10
2019-03-21T07:58:32.545Z,84.20
2019-03-21T08:01:03.462Z,83.00
2019-03-21T08:03:34.299Z,82.30
2019-03-21T08:06:07.080Z,82.00
2019-03-21T08:08:37.728Z,81.60
2019-03-21T08:11:08.661Z,80.80
2019-03-21T08:13:39.517Z,80.20
2019-03-21T08:16:10.883Z,79.10
2019-03-21T08:18:41.753Z,78.30
2019-03-21T08:21:13.291Z,76.80
2019-03-21T08:23:44.155Z,74.70
2019-03-21T08:26:15.076Z,74.70
2019-03-21T08:28:45.988Z,74.00
2019-03-21T08:31:21.204Z,72.70
2019-03-21T08:33:52.029Z,71.30
2019-03-21T08:36:22.884Z,71.30
2019-03-21T08:38:53.705Z,69.90
2019-03-21T08:41:24.581Z,70.10
2019-03-21T08:43:56.578Z,67.70
2019-03-21T08:46:27.427Z,67.10
2019-03-21T08:48:58.262Z,66.10
2019-03-21T08:51:30.214Z,66.20
2019-03-21T08:54:01.112Z,65.10
2019-03-21T08:56:31.924Z,64.30
2019-03-21T08:59:02.937Z,64.10
2019-03-21T09:01:33.815Z,63.40
2019-03-21T09:04:04.680Z,62.10
2019-03-21T09:06:35.520Z,60.90
2019-03-21T09:09:09.437Z,59.80
2019-03-21T09:11:40.335Z,60.30
2019-03-21T09:14:11.140Z,61.10
2019-03-21T09:16:41.988Z,61.20
2019-03-21T09:19:12.874Z,62.30
2019-03-21T09:21:43.716Z,63.20
2019-03-21T09:24:14.565Z,64.20
2019-03-21T09:26:45.566Z,64.90
2019-03-21T09:29:17.148Z,65.70
2019-03-21T09:31:48.017Z,64.30
2019-03-21T09:34:18.929Z,63.90
2019-03-21T09:36:49.809Z,63.70
2019-03-21T09:39:20.696Z,64.00
2019-03-21T09:41:51.608Z,63.00
2019-03-21T09:44:28.026Z,62.70
2019-03-21T09:46:58.865Z,62.10
2019-03-21T09:49:29.761Z,60.90
2019-03-21T09:52:00.609Z,60.10
2019-03-21T09:54:32.583Z,59.60
2019-03-21T09:57:03.444Z,59.20
2019-03-21T09:59:34.392Z,58.80
2019-03-21T10:02:05.229Z,59.50
2019-03-21T10:04:36.116Z,60.20
2019-03-21T10:07:07.038Z,60.40
2019-03-21T10:09:37.953Z,61.10
2019-03-21T10:12:08.858Z,62.00
2019-03-21T10:14:39.883Z,62.50
2019-03-21T10:17:11.452Z,62.40
2019-03-21T10:19:42.309Z,61.30
2019-03-21T10:22:13.210Z,61.30
2019-03-21T10:24:44.096Z,61.50
2019-03-21T10:27:15.328Z,61.20
2019-03-21T10:29:46.194Z,61.80
2019-03-21T10:32:17.087Z,61.30
2019-03-21T10:34:47.944Z,60.90
2019-03-21T10:37:18.815Z,59.90
2019-03-21T10:39:49.702Z,59.10
2019-03-21T10:42:20.616Z,57.00
2019-03-21T10:44:51.504Z,53.50
2019-03-21T10:47:22.426Z,51.20
2019-03-21T10:49:53.255Z,48.80
2019-03-21T10:52:24.222Z,47.10
2019-03-21T10:54:55.080Z,47.10
2019-03-21T10:57:25.956Z,47.00
2019-03-21T10:59:58.124Z,47.00
2019-03-21T11:02:41.494Z,46.80
2019-03-21T11:05:12.364Z,45.80
2019-03-21T11:07:43.263Z,44.30
2019-03-21T11:10:16.404Z,44.00
2019-03-21T11:12:47.297Z,44.80
2019-03-21T11:15:18.246Z,45.00
2019-03-21T11:17:49.434Z,45.00
2019-03-21T11:20:33.972Z,46.10
2019-03-21T11:23:06.696Z,46.60
2019-03-21T11:25:37.757Z,47.00
2019-03-21T11:28:09.160Z,47.20
2019-03-21T11:30:44.998Z,47.30
2019-03-21T11:33:27.487Z,47.50
2019-03-21T11:35:59.563Z,47.40
2019-03-21T11:38:30.422Z,48.20
2019-03-21T11:41:01.295Z,48.50
2019-03-21T11:43:32.190Z,48.10
2019-03-21T11:46:03.027Z,47.60
2019-03-21T11:48:33.911Z,48.40
2019-03-21T11:51:04.742Z,49.50
2019-03-21T11:53:35.604Z,50.40
2019-03-21T11:56:06.479Z,51.10
2019-03-21T11:58:37.377Z,51.40
2019-03-21T12:01:08.599Z,51.50
2019-03-21T12:03:39.498Z,51.90
2019-03-21T12:06:10.360Z,52.30
2019-03-21T12:08:42.325Z,52.10
2019-03-21T12:11:13.551Z,51.80
2019-03-21T12:13:44.436Z,51.00
2019-03-21T12:16:15.318Z,50.70
2019-03-21T12:18:46.165Z,50.60
2019-03-21T12:21:17.033Z,50.30
2019-03-21T12:23:47.860Z,49.80
2019-03-21T12:26:18.740Z,50.20
2019-03-21T12:28:49.533Z,50.80
2019-03-21T12:31:20.739Z,50.50
2019-03-21T12:33:51.655Z,50.90
2019-03-21T12:36:22.586Z,51.40
2019-03-21T12:38:53.390Z,52.10
2019-03-21T12:41:24.266Z,52.50
2019-03-21T12:43:55.113Z,52.70
2019-03-21T12:46:26.369Z,52.70
2019-03-21T12:48:57.215Z,52.80
2019-03-21T12:51:28.221Z,52.50
2019-03-21T12:53:59.083Z,52.00
2019-03-21T12:56:31.025Z,52.10
2019-03-21T12:59:01.793Z,52.50
2019-03-21T13:01:33.111Z,52.90
2019-03-21T13:04:04.132Z,53.20
2019-03-21T13:06:35.006Z,53.40
2019-03-21T13:09:08.956Z,53.10
2019-03-21T13:11:39.857Z,53.60
2019-03-21T13:14:10.803Z,53.90
2019-03-21T13:16:41.670Z,53.60
2019-03-21T13:19:12.595Z,53.00
2019-03-21T13:21:43.561Z,52.90
2019-03-21T13:24:17.279Z,53.00
2019-03-21T13:26:46.916Z,52.70
2019-03-21T13:29:17.857Z,52.80
2019-03-21T13:31:50.347Z,52.70
2019-03-21T13:34:21.156Z,52.30
2019-03-21T13:36:52.120Z,52.50
2019-03-21T13:39:23.036Z,51.40
2019-03-21T13:41:56.477Z,51.30
2019-03-21T13:44:27.374Z,52.00
2019-03-21T13:46:58.296Z,52.50
2019-03-21T13:49:29.154Z,52.60
2019-03-21T13:52:05.155Z,52.50
2019-03-21T13:54:36.198Z,52.50
2019-03-21T13:57:07.051Z,52.60
2019-03-21T13:59:37.885Z,52.80
2019-03-21T14:02:10.112Z,53.10
2019-03-21T14:04:41.050Z,53.50
2019-03-21T14:07:12.384Z,53.60
2019-03-21T14:09:43.301Z,53.50
2019-03-21T14:12:14.227Z,53.70
2019-03-21T14:14:45.113Z,53.80
2019-03-21T14:17:34.786Z,53.20
2019-03-21T14:20:05.889Z,53.20
2019-03-21T14:22:36.812Z,53.20
2019-03-21T14:25:08.861Z,53.40
2019-03-21T14:27:40.888Z,53.50
2019-03-21T14:30:14.137Z,53.60
2019-03-21T14:32:46.092Z,52.60
2019-03-21T14:35:18.089Z,52.50
2019-03-21T14:37:50.059Z,53.00
2019-03-21T14:40:21.546Z,53.60
2019-03-21T14:42:52.561Z,53.80
2019-03-21T14:45:23.557Z,53.80
2019-03-21T14:47:56.367Z,53.90
2019-03-21T14:50:27.714Z,54.10
2019-03-21T14:52:58.644Z,54.40
2019-03-21T14:55:29.587Z,54.60
2019-03-21T14:58:00.386Z,54.90
2019-03-21T15:00:31.303Z,55.70
2019-03-21T15:03:03.941Z,55.10
2019-03-21T15:05:35.327Z,55.20
2019-03-21T15:08:06.449Z,55.50
2019-03-21T15:10:37.357Z,55.60
2019-03-21T15:13:08.309Z,55.90
2019-03-21T15:15:39.301Z,55.90
2019-03-21T15:18:10.141Z,56.00
2019-03-21T15:20:41.051Z,56.10
2019-03-21T15:23:13.663Z,56.30
2019-03-21T15:25:44.738Z,56.70
2019-03-21T15:28:15.739Z,56.90
2019-03-21T15:30:46.693Z,57.10
2019-03-21T15:33:17.609Z,57.50
2019-03-21T15:35:48.616Z,57.60
2019-03-21T15:38:19.533Z,57.80
2019-03-21T15:40:50.424Z,58.10
2019-03-21T15:43:22.424Z,58.40
2019-03-21T15:45:53.294Z,58.50
2019-03-21T15:48:24.317Z,58.70
2019-03-21T15:51:04.321Z,59.00
2019-03-21T15:53:27.994Z,59.10
2019-03-21T15:55:58.832Z,59.40
2019-03-21T15:58:29.755Z,59.80
2019-03-21T16:01:00.719Z,60.20
2019-03-21T16:03:32.995Z,60.50
2019-03-21T16:06:04.996Z,60.60
2019-03-21T16:08:35.813Z,60.50
2019-03-21T16:11:06.897Z,60.90
2019-03-21T16:13:39.007Z,60.90
2019-03-21T16:16:09.978Z,60.80
2019-03-21T16:18:40.853Z,61.10
2019-03-21T16:21:11.999Z,61.20
2019-03-21T16:23:42.871Z,61.30
2019-03-21T16:26:14.184Z,61.70
2019-03-21T16:28:45.053Z,62.20
2019-03-21T16:31:15.921Z,62.80
2019-03-21T16:33:48.009Z,63.70
2019-03-21T16:36:18.852Z,64.30
2019-03-21T16:38:49.695Z,64.80
2019-03-21T16:41:20.638Z,65.20
2019-03-21T16:43:51.493Z,65.80
2019-03-21T16:46:22.373Z,66.50
2019-03-21T16:48:54.121Z,66.80
2019-03-21T16:51:25.021Z,67.50
2019-03-21T16:53:55.861Z,67.90
2019-03-21T16:56:26.756Z,68.40
2019-03-21T16:58:58.903Z,69.10
2019-03-21T17:01:31.851Z,69.40
2019-03-21T17:04:02.721Z,69.90
2019-03-21T17:06:33.527Z,70.20
2019-03-21T17:09:05.724Z,70.70
2019-03-21T17:11:36.574Z,71.50
2019-03-21T17:14:07.434Z,71.60
2019-03-21T17:16:38.767Z,72.10
2019-03-21T17:19:09.611Z,72.30
2019-03-21T17:21:40.623Z,72.60
2019-03-21T17:24:11.484Z,72.70
2019-03-21T17:26:42.418Z,72.90
2019-03-21T17:29:13.349Z,73.10
2019-03-21T17:31:44.234Z,73.70
2019-03-21T17:34:16.200Z,73.70
2019-03-21T17:36:47.189Z,73.80
2019-03-21T17:39:18.190Z,74.30
2019-03-21T17:41:49.089Z,74.40
2019-03-21T17:44:21.147Z,74.70
2019-03-21T17:46:52.117Z,75.10
2019-03-21T17:49:23.199Z,75.20
2019-03-21T17:51:54.652Z,75.20
2019-03-21T17:54:25.521Z,75.30
2019-03-21T17:56:56.355Z,75.50
2019-03-21T17:59:27.308Z,75.70
2019-03-21T18:01:58.257Z,76.90
2019-03-21T18:04:29.375Z,76.20
2019-03-21T18:07:00.273Z,76.30
2019-03-21T18:09:31.169Z,76.50
2019-03-21T18:12:02.061Z,76.70
2019-03-21T18:14:32.910Z,76.80
2019-03-21T18:17:03.858Z,76.90
2019-03-21T18:19:34.755Z,76.90
2019-03-21T18:22:05.636Z,77.30
2019-03-21T18:24:36.557Z,77.50
2019-03-21T18:27:07.540Z,77.70
2019-03-21T18:29:38.386Z,77.90
2019-03-21T18:32:09.369Z,78.10
2019-03-21T18:34:41.503Z,78.60
2019-03-21T18:37:12.369Z,79.00
2019-03-21T18:39:43.317Z,78.90
2019-03-21T18:42:14.233Z,79.30
2019-03-21T18:44:45.241Z,79.70
2019-03-21T18:47:16.142Z,79.70
2019-03-21T18:49:47.257Z,80.10
2019-03-21T18:52:18.073Z,80.50
2019-03-21T18:54:48.989Z,80.90
2019-03-21T18:57:19.952Z,81.40
2019-03-21T18:59:50.850Z,81.70
2019-03-21T19:02:21.779Z,82.00
2019-03-21T19:04:53.061Z,82.20
2019-03-21T19:07:24.029Z,82.80
2019-03-21T19:09:54.953Z,82.90
2019-03-21T19:12:25.844Z,83.30
2019-03-21T19:14:56.729Z,83.50
2019-03-21T19:17:27.556Z,83.90
2019-03-21T19:19:59.427Z,83.90
2019-03-21T19:22:30.354Z,84.40
2019-03-21T19:25:01.226Z,84.60
2019-03-21T19:27:33.208Z,85.00
2019-03-21T19:30:04.760Z,85.20
2019-03-21T19:32:35.731Z,85.50
2019-03-21T19:35:08.314Z,86.00
2019-03-21T19:37:39.255Z,86.20
2019-03-21T19:40:10.365Z,86.70
2019-03-21T19:42:41.301Z,87.40
2019-03-21T19:45:12.749Z,88.00
2019-03-21T19:47:43.847Z,88.20
2019-03-21T19:50:15.106Z,88.50
2019-03-21T19:52:46.045Z,88.80
2019-03-21T19:55:25.822Z,89.30
2019-03-21T19:57:50.997Z,90.00
2019-03-21T20:00:22.360Z,90.20
2019-03-21T20:02:54.239Z,90.40
2019-03-21T20:05:25.282Z,90.50
2019-03-21T20:07:56.149Z,90.60
2019-03-21T20:10:27.059Z,90.80
2019-03-21T20:12:58.041Z,91.00
2019-03-21T20:15:28.975Z,91.20
2019-03-21T20:17:59.933Z,91.30
2019-03-21T20:20:31.144Z,91.40
2019-03-21T20:23:04.453Z,91.60
2019-03-21T20:25:42.890Z,91.70
2019-03-21T20:28:08.169Z,91.70
2019-03-21T20:30:39.175Z,91.80
2019-03-21T20:33:10.056Z,91.90
2019-03-21T20:35:40.897Z,92.00
2019-03-21T20:38:11.882Z,91.90
2019-03-21T20:40:42.791Z,92.00
2019-03-21T20:43:13.659Z,92.10
2019-03-21T20:45:44.525Z,92.10
2019-03-21T20:48:15.473Z,92.10
2019-03-21T20:50:51.212Z,92.10
2019-03-21T20:53:22.051Z,92.20
2019-03-21T20:55:53.839Z,92.20
2019-03-21T20:58:24.985Z,92.20
2019-03-21T21:00:55.933Z,92.30
2019-03-21T21:03:26.902Z,92.30
2019-03-21T21:05:57.849Z,92.40
2019-03-21T21:08:28.746Z,92.40
2019-03-21T21:10:59.617Z,92.50
2019-03-21T21:13:30.605Z,92.40
2019-03-21T21:16:01.506Z,92.50
2019-03-21T21:18:32.389Z,92.50
2019-03-21T21:21:03.367Z,92.60
2019-03-21T21:23:34.229Z,92.60
2019-03-21T21:26:05.973Z,93.00
2019-03-21T21:28:36.849Z,92.60
2019-03-21T21:31:07.750Z,92.50
2019-03-21T21:33:38.668Z,92.90
2019-03-21T21:36:21.413Z,92.60
2019-03-21T21:38:42.137Z,92.60
2019-03-21T21:41:13.084Z,92.60
2019-03-21T21:43:43.942Z,92.60
2019-03-21T21:46:16.179Z,92.60
2019-03-21T21:48:47.062Z,92.60
2019-03-21T21:51:17.927Z,92.50
2019-03-21T21:53:49.915Z,92.60
2019-03-21T21:56:20.767Z,92.70
2019-03-21T21:58:51.692Z,92.80
2019-03-21T22:01:24.931Z,92.80
2019-03-21T22:04:04.608Z,92.90
2019-03-21T22:06:28.281Z,92.90
2019-03-21T22:08:59.176Z,93.00
2019-03-21T22:11:30.018Z,93.00
2019-03-21T22:14:00.876Z,93.10
2019-03-21T22:16:31.781Z,93.20
2019-03-21T22:19:02.693Z,93.10
2019-03-21T22:21:33.595Z,93.00
2019-03-21T22:24:04.670Z,93.10
2019-03-21T22:26:35.604Z,93.10
2019-03-21T22:29:06.530Z,93.20
2019-03-21T22:31:37.497Z,93.20
2019-03-21T22:34:08.361Z,93.20
2019-03-21T22:36:48.967Z,93.20
2019-03-21T22:39:11.743Z,93.20
2019-03-21T22:41:42.650Z,93.10
2019-03-21T22:44:13.507Z,93.20
2019-03-21T22:46:44.421Z,93.30
2019-03-21T22:49:15.370Z,93.30
2019-03-21T22:51:46.237Z,93.40
2019-03-21T22:54:17.127Z,93.40
2019-03-21T22:56:48.085Z,93.40
2019-03-21T22:59:18.987Z,93.50
2019-03-21T23:01:49.827Z,93.40
2019-03-21T23:04:20.758Z,93.40
2019-03-21T23:06:51.756Z,93.50
2019-03-21T23:09:22.721Z,93.50
2019-03-21T23:11:53.653Z,93.50
2019-03-21T23:14:24.570Z,93.50
2019-03-21T23:16:55.491Z,93.50
2019-03-21T23:19:26.390Z,93.50
2019-03-21T23:21:57.316Z,93.50
2019-03-21T23:24:28.195Z,93.60
2019-03-21T23:26:59.135Z,93.60
2019-03-21T23:29:30.055Z,93.70
2019-03-21T23:32:02.011Z,93.70
2019-03-21T23:34:32.858Z,93.80
2019-03-21T23:37:05.168Z,93.90
2019-03-21T23:39:36.006Z,94.00
2019-03-21T23:42:06.880Z,94.00
2019-03-21T23:44:38.117Z,94.00
2019-03-21T23:47:09.011Z,94.20
2019-03-21T23:49:39.986Z,94.30
2019-03-21T23:52:10.850Z,94.30
2019-03-21T23:54:41.756Z,94.40
2019-03-21T23:57:12.637Z,94.40
2019-03-21T23:59:43.557Z,94.40
